Jewell, Kansas
Current Conditions -  °F | °C
As of 1:55 PM on Monday 26 Jan 2015 (Local Time) from KCNK Reporting Station
Clear Clear  
Wind Chill: 65°   Ceiling: Unl
Heat Index: 65°   Visibility: 10mi
Dew Point: 34°   Wind: 20mph
Humidity: 32%   Direction: 350°N
Pressure: 29.97"   Gusts: 24mph
Location:  39.67°N, 98.15°W
Report Text: KCNK 261955Z AUTO 35017G21KT 10SM CLR 18/01 A2997 RMK AO2 SLP150 T01830011
Loading
Personal Weather Stations






























Interactive Weather Map New forecast layout! Learn more

10-Day Weather Forecast

Advertisements
Track Severe Weather on mobile